Snellville, Georgia
Current Conditions -  °F | °C
As of 10:45 AM on Monday 22 Dec 2014 (Local Time) from KLZU Reporting Station
Haze Haze  
Wind Chill: 38°   Ceiling: 300
Heat Index: 45°   Visibility: 1mi
Dew Point: 37°   Wind: 13mph
Humidity: 76%   Direction: 70°ENE
Pressure: 30.03"   Gusts: NA
Location:  33.86°N, 84.02°W
Report Text: KLZU 221545Z 07011KT 1SM BR OVC003 07/03 A3003 RMK ATIS W RWY 25 JW
Loading
Personal Weather Stations






























Interactive Weather Map New forecast layout! Learn more

10-Day Weather Forecast

Advertisements
Track Severe Weather on mobile